< < Back
Terminal Aerodrome Forecast


Current Version              Previous Versions:   1  2  3  4  5  6  7  8  9  

Terminal Aerodrome Forecast

824
FTUS44 KBMX 220500
TAFTCL
TAF
KTCL 220534Z 2206/2306 00000KT P6SM SKC
     FM221500 27005KT P6SM SCT050=

Latest METAR

135
SAUS70 KWBC 230300 RRJ
MTRTCL
METAR KTCL 230253Z AUTO 00000KT 10SM CLR 27/23 A3001 RMK AO2 SLP159
T02670233 53004


USA.gov is the U.S. government's official web portal to all federal, state and local government web resources and services.